createdAt,value
2023-03-07T00:00:49.744Z,101280.31
2023-03-07T00:03:21.321Z,101287.13
2023-03-07T00:05:51.702Z,101279.38
2023-03-07T00:08:22.522Z,101274.91
2023-03-07T00:10:54.907Z,101284.53
2023-03-07T00:13:26.156Z,101277.63
2023-03-07T00:15:56.591Z,101274.34
2023-03-07T00:18:26.948Z,101270.25
2023-03-07T00:21:01.559Z,101268.97
2023-03-07T00:23:32.256Z,101263.22
2023-03-07T00:26:08.150Z,101272.00
2023-03-07T00:28:38.449Z,101267.91
2023-03-07T00:31:11.643Z,101267.78
2023-03-07T00:33:42.311Z,101266.84
2023-03-07T00:36:17.127Z,101257.50
2023-03-07T00:38:47.963Z,101252.94
2023-03-07T00:41:22.820Z,101246.34
2023-03-07T00:43:53.952Z,101249.41
2023-03-07T00:46:26.483Z,101250.09
2023-03-07T00:48:57.397Z,101259.22
2023-03-07T00:51:28.232Z,101252.31
2023-03-07T00:53:58.992Z,101246.22
2023-03-07T00:56:31.122Z,101243.41
2023-03-07T00:59:01.603Z,101244.59
2023-03-07T01:01:32.289Z,101240.97
2023-03-07T01:04:02.758Z,101241.31
2023-03-07T01:06:36.439Z,101236.50
2023-03-07T01:09:09.292Z,101229.25
2023-03-07T01:11:41.580Z,101229.63
2023-03-07T01:14:13.762Z,101235.53
2023-03-07T01:16:45.051Z,101230.28
2023-03-07T01:19:15.615Z,101225.81
2023-03-07T01:21:46.719Z,101216.59
2023-03-07T01:24:19.122Z,101222.19
2023-03-07T01:26:50.626Z,101220.56
2023-03-07T01:29:20.652Z,101214.47
2023-03-07T01:31:50.795Z,101214.00
2023-03-07T01:34:20.462Z,101212.34
2023-03-07T01:36:50.947Z,101206.72
2023-03-07T01:39:21.133Z,101202.28
2023-03-07T01:41:53.090Z,101199.47
2023-03-07T01:44:26.908Z,101200.31
2023-03-07T01:46:58.650Z,101193.41
2023-03-07T01:49:34.005Z,101197.84
2023-03-07T01:52:10.315Z,101193.41
2023-03-07T01:54:49.315Z,101195.72
2023-03-07T01:57:28.387Z,101190.44
2023-03-07T02:00:02.337Z,101186.34
2023-03-07T02:02:32.570Z,101196.31
2023-03-07T02:05:12.477Z,101194.66
2023-03-07T02:07:47.269Z,101193.88
2023-03-07T02:10:22.104Z,101193.38
2023-03-07T02:12:56.112Z,101195.72
2023-03-07T02:15:26.914Z,101198.03
2023-03-07T02:18:00.051Z,101195.59
2023-03-07T02:20:42.415Z,101195.13
2023-03-07T02:23:19.487Z,101197.81
2023-03-07T02:26:01.906Z,101195.22
2023-03-07T02:28:34.452Z,101199.53
2023-03-07T02:31:08.105Z,101203.06
2023-03-07T02:33:38.719Z,101205.41
2023-03-07T02:36:13.242Z,101204.91
2023-03-07T02:38:47.450Z,101209.69
2023-03-07T02:41:21.726Z,101222.94
2023-03-07T02:43:53.151Z,101237.31
2023-03-07T02:46:23.698Z,101232.03
2023-03-07T02:48:54.243Z,101242.44
2023-03-07T02:51:24.760Z,101243.25
2023-03-07T02:53:54.737Z,101240.81
2023-03-07T02:56:25.361Z,101240.00
2023-03-07T02:58:57.800Z,101230.75
2023-03-07T03:01:28.095Z,101229.94
2023-03-07T03:03:58.445Z,101233.91
2023-03-07T03:06:28.483Z,101224.31
2023-03-07T03:08:58.994Z,101229.94
2023-03-07T03:11:29.354Z,101233.91
2023-03-07T03:14:01.740Z,101239.16
2023-03-07T03:16:32.492Z,101235.56
2023-03-07T03:19:02.509Z,101230.75
2023-03-07T03:21:32.566Z,101238.00
2023-03-07T03:24:08.765Z,101229.59
2023-03-07T03:26:40.520Z,101236.34
2023-03-07T03:29:13.058Z,101247.22
2023-03-07T03:31:43.197Z,101246.78
2023-03-07T03:34:13.593Z,101235.88
2023-03-07T03:36:43.549Z,101235.06
2023-03-07T03:39:14.890Z,101239.03
2023-03-07T03:41:45.358Z,101238.25
2023-03-07T03:44:17.786Z,101235.44
2023-03-07T03:46:49.486Z,101242.22
2023-03-07T03:49:20.150Z,101250.63
2023-03-07T03:51:50.564Z,101262.19
2023-03-07T03:54:21.402Z,101258.56
2023-03-07T03:56:51.847Z,101256.56
2023-03-07T03:59:24.687Z,101255.75
2023-03-07T04:01:55.572Z,101264.19
2023-03-07T04:04:26.403Z,101268.16
2023-03-07T04:06:56.409Z,101275.72
2023-03-07T04:09:26.562Z,101274.13
2023-03-07T04:11:57.078Z,101276.94
2023-03-07T04:14:29.651Z,101271.31
2023-03-07T04:17:00.154Z,101269.66
2023-03-07T04:19:30.156Z,101269.66
2023-03-07T04:22:00.697Z,101276.94
2023-03-07T04:24:31.448Z,101276.94
2023-03-07T04:27:01.855Z,101264.38
2023-03-07T04:29:33.876Z,101265.06
2023-03-07T04:32:04.469Z,101263.72
2023-03-07T04:34:34.290Z,101259.28
2023-03-07T04:37:04.788Z,101258.84
2023-03-07T04:39:35.398Z,101254.72
2023-03-07T04:42:05.448Z,101261.50
2023-03-07T04:44:36.823Z,101260.66
2023-03-07T04:47:07.157Z,101256.22
2023-03-07T04:49:37.672Z,101263.47
2023-03-07T04:52:09.136Z,101265.47
2023-03-07T04:54:41.258Z,101271.91
2023-03-07T04:57:11.894Z,101283.13
2023-03-07T04:59:44.296Z,101276.22
2023-03-07T05:02:16.438Z,101284.63
2023-03-07T05:04:47.036Z,101293.06
2023-03-07T05:07:17.590Z,101291.53
2023-03-07T05:09:48.299Z,101295.63
2023-03-07T05:12:18.233Z,101294.47
2023-03-07T05:14:50.299Z,101299.41
2023-03-07T05:17:21.998Z,101292.63
2023-03-07T05:19:52.443Z,101301.88
2023-03-07T05:22:22.938Z,101302.69
2023-03-07T05:24:53.442Z,101307.16
2023-03-07T05:27:24.611Z,101306.81
2023-03-07T05:29:56.752Z,101300.53
2023-03-07T05:32:27.334Z,101307.44
2023-03-07T05:34:57.816Z,101301.47
2023-03-07T05:37:28.446Z,101308.41
2023-03-07T05:39:59.337Z,101310.50
2023-03-07T05:42:29.792Z,101312.63
2023-03-07T05:45:01.779Z,101320.84
2023-03-07T05:47:32.464Z,101318.50
2023-03-07T05:50:02.936Z,101321.81
2023-03-07T05:52:33.578Z,101321.00
2023-03-07T05:55:05.129Z,101325.41
2023-03-07T05:57:36.514Z,101330.72
2023-03-07T06:00:11.710Z,101339.94
2023-03-07T06:02:42.296Z,101361.72
2023-03-07T06:05:14.590Z,101356.91
2023-03-07T06:07:45.137Z,101355.25
2023-03-07T06:10:16.297Z,101358.06
2023-03-07T06:12:46.893Z,101353.16
2023-03-07T06:15:19.231Z,101353.84
2023-03-07T06:17:49.924Z,101357.69
2023-03-07T06:20:21.239Z,101360.00
2023-03-07T06:22:51.906Z,101374.41
2023-03-07T06:25:23.086Z,101377.69
2023-03-07T06:27:53.630Z,101380.16
2023-03-07T06:30:29.500Z,101373.03
2023-03-07T06:33:00.055Z,101379.13
2023-03-07T06:35:30.680Z,101382.91
2023-03-07T06:38:01.397Z,101385.00
2023-03-07T06:40:31.737Z,101383.50
2023-03-07T06:43:02.470Z,101394.03
2023-03-07T06:45:34.780Z,101398.16
2023-03-07T06:48:05.273Z,101394.66
2023-03-07T06:50:35.947Z,101389.50
2023-03-07T06:53:05.931Z,101389.63
2023-03-07T06:55:37.463Z,101388.97
2023-03-07T06:58:08.111Z,101389.91
2023-03-07T07:00:40.782Z,101389.22
2023-03-07T07:03:14.743Z,101389.34
2023-03-07T07:05:44.713Z,101392.28
2023-03-07T07:08:16.200Z,101384.81
2023-03-07T07:10:46.652Z,101394.22
2023-03-07T07:13:17.252Z,101391.88
2023-03-07T07:15:48.708Z,101395.66
2023-03-07T07:18:18.746Z,101394.13
2023-03-07T07:20:56.989Z,101389.47
2023-03-07T07:23:27.583Z,101392.75
2023-03-07T07:25:58.222Z,101395.69
2023-03-07T07:28:28.892Z,101393.81
2023-03-07T07:31:02.032Z,101393.97
2023-03-07T07:33:32.587Z,101396.88
2023-03-07T07:36:03.538Z,101405.09
2023-03-07T07:38:34.094Z,101405.22
2023-03-07T07:41:04.707Z,101398.53
2023-03-07T07:43:35.012Z,101390.25
2023-03-07T07:46:09.159Z,101382.25
2023-03-07T07:48:39.744Z,101392.00
2023-03-07T07:51:10.254Z,101394.94
2023-03-07T07:53:41.208Z,101383.44
2023-03-07T07:56:11.813Z,101386.38
2023-03-07T07:58:42.337Z,101388.31
2023-03-07T08:01:20.866Z,101383.72
2023-03-07T08:03:51.997Z,101398.03
2023-03-07T08:06:24.472Z,101388.19
2023-03-07T08:08:54.941Z,101381.13
2023-03-07T08:11:26.907Z,101376.56
2023-03-07T08:13:57.297Z,101371.59
2023-03-07T08:16:29.907Z,101364.69
2023-03-07T08:19:01.267Z,101367.72
2023-03-07T08:21:32.159Z,101372.78
2023-03-07T08:24:03.356Z,101382.97
2023-03-07T08:26:33.913Z,101381.06
2023-03-07T08:29:04.042Z,101379.19
2023-03-07T08:31:36.487Z,101368.88
2023-03-07T08:34:07.264Z,101370.13
2023-03-07T08:36:37.888Z,101374.31
2023-03-07T08:39:08.575Z,101370.91
2023-03-07T08:41:39.094Z,101358.66
2023-03-07T08:44:09.527Z,101347.94
2023-03-07T08:46:42.093Z,101337.22
2023-03-07T08:49:12.620Z,101337.00
2023-03-07T08:51:42.946Z,101346.84
2023-03-07T08:54:13.822Z,101354.59
2023-03-07T08:56:43.938Z,101352.66
2023-03-07T08:59:14.289Z,101339.03
2023-03-07T09:01:46.276Z,101337.84
2023-03-07T09:04:16.354Z,101331.50
2023-03-07T09:06:46.944Z,101333.13
2023-03-07T09:09:16.930Z,101322.28
2023-03-07T09:11:47.444Z,101306.69
2023-03-07T09:14:17.955Z,101318.75
2023-03-07T09:16:50.598Z,101311.56
2023-03-07T09:19:21.183Z,101317.34
2023-03-07T09:21:52.035Z,101316.13
2023-03-07T09:24:22.773Z,101309.31
2023-03-07T09:26:53.433Z,101299.66
2023-03-07T09:29:23.932Z,101294.47
2023-03-07T09:31:56.553Z,101300.59
2023-03-07T09:34:27.076Z,101298.66
2023-03-07T09:36:57.041Z,101301.59
2023-03-07T09:39:27.537Z,101297.66
2023-03-07T09:42:13.875Z,101284.09
2023-03-07T09:45:06.541Z,101273.25
2023-03-07T09:48:07.804Z,101289.09
2023-03-07T09:50:49.051Z,101276.28
2023-03-07T09:53:31.868Z,101270.75
2023-03-07T09:56:05.947Z,101271.19
2023-03-07T09:58:40.658Z,101264.81
2023-03-07T10:01:14.112Z,101264.88
2023-03-07T10:03:58.668Z,101237.94
2023-03-07T10:06:36.431Z,101240.84
2023-03-07T10:09:10.005Z,101235.28
2023-03-07T10:12:23.694Z,101231.72
2023-03-07T10:15:31.243Z,101218.03
2023-03-07T10:18:29.265Z,101198.72
2023-03-07T10:21:16.393Z,101193.53
2023-03-07T10:24:21.035Z,101194.38
2023-03-07T10:27:00.343Z,101186.31
2023-03-07T10:29:39.759Z,101190.00
2023-03-07T10:32:28.816Z,101170.69
2023-03-07T10:35:07.305Z,101179.94
2023-03-07T10:37:51.570Z,101181.59
2023-03-07T10:40:28.750Z,101169.91
2023-03-07T10:46:12.764Z,101159.00
2023-03-07T10:48:53.536Z,101145.69
2023-03-07T10:51:54.037Z,101143.69
2023-03-07T10:54:32.048Z,101144.88
2023-03-07T10:57:13.163Z,101158.63
2023-03-07T10:59:48.475Z,101144.50
2023-03-07T11:02:41.336Z,101145.69
2023-03-07T11:05:33.254Z,101129.94
2023-03-07T11:08:22.597Z,101122.69
2023-03-07T11:10:54.566Z,101123.41
2023-03-07T11:13:26.562Z,101130.25
2023-03-07T11:16:19.451Z,101128.16
2023-03-07T11:18:50.660Z,101126.91
2023-03-07T11:21:34.316Z,101107.94
2023-03-07T11:24:07.247Z,101106.34
2023-03-07T11:26:43.656Z,101093.03
2023-03-07T11:29:17.210Z,101095.88
2023-03-07T11:32:01.968Z,101100.31
2023-03-07T11:34:46.542Z,101088.19
2023-03-07T11:37:31.949Z,101065.19
2023-03-07T11:40:24.518Z,101050.63
2023-03-07T11:43:15.801Z,101042.56
2023-03-07T11:45:58.958Z,101045.72
2023-03-07T11:49:03.281Z,101032.81
2023-03-07T11:51:58.265Z,101036.41
2023-03-07T11:54:41.073Z,101036.28
2023-03-07T11:57:26.727Z,101025.78
2023-03-07T12:00:22.665Z,101018.50
2023-03-07T12:03:55.485Z,101024.06
2023-03-07T12:06:49.603Z,101022.78
2023-03-07T12:09:40.308Z,101034.44
2023-03-07T12:12:43.203Z,101021.91
2023-03-07T12:15:40.311Z,101010.91
2023-03-07T12:18:48.028Z,101006.81
2023-03-07T12:21:42.448Z,101023.69
2023-03-07T12:24:23.998Z,101018.41
2023-03-07T12:27:02.886Z,101018.41
2023-03-07T12:29:41.070Z,101008.78
2023-03-07T12:32:20.693Z,101009.56
2023-03-07T12:35:01.452Z,101000.31
2023-03-07T12:37:39.851Z,100999.03
2023-03-07T12:40:22.738Z,100998.56
2023-03-07T12:43:04.454Z,101008.25
2023-03-07T12:45:46.161Z,100998.16
2023-03-07T12:48:29.312Z,100995.34
2023-03-07T12:51:11.567Z,100990.03
2023-03-07T12:53:52.463Z,100990.44
2023-03-07T12:56:30.945Z,100995.25
2023-03-07T12:59:13.249Z,100992.44
2023-03-07T13:01:50.693Z,100997.63
2023-03-07T13:04:33.387Z,100991.16
2023-03-07T13:07:11.839Z,100979.06
2023-03-07T13:09:45.401Z,100985.91
2023-03-07T13:12:37.099Z,100991.09
2023-03-07T13:15:09.534Z,100994.66
2023-03-07T13:18:02.654Z,100983.75
2023-03-07T13:21:15.403Z,100973.19
2023-03-07T13:23:46.126Z,100962.69
2023-03-07T13:26:27.408Z,100968.31
2023-03-07T13:28:58.047Z,100970.31
2023-03-07T13:31:47.509Z,100975.94
2023-03-07T13:34:51.957Z,100983.59
2023-03-07T13:37:59.310Z,100975.06
2023-03-07T13:40:59.501Z,100971.44
2023-03-07T13:44:04.656Z,100959.69
2023-03-07T13:47:01.796Z,100966.16
2023-03-07T13:49:47.255Z,100956.06
2023-03-07T13:52:56.215Z,100960.06
2023-03-07T13:55:35.225Z,100950.38
2023-03-07T13:58:26.655Z,100947.56
2023-03-07T14:01:02.015Z,100947.09
2023-03-07T14:03:51.369Z,100944.66
2023-03-07T14:06:30.002Z,100940.56
2023-03-07T14:09:03.130Z,100944.94
2023-03-07T14:11:49.172Z,100955.41
2023-03-07T14:14:48.881Z,100949.28
2023-03-07T14:17:55.223Z,100945.56
2023-03-07T14:20:45.231Z,100942.75
2023-03-07T14:23:37.852Z,100953.59
2023-03-07T14:26:19.198Z,100945.50
2023-03-07T14:29:02.323Z,100954.31
2023-03-07T14:31:40.796Z,100950.69
2023-03-07T14:34:28.248Z,100949.06
2023-03-07T14:37:04.590Z,100953.06
2023-03-07T14:39:56.837Z,100960.69
2023-03-07T14:42:40.927Z,100955.44
2023-03-07T14:45:38.320Z,100971.50
2023-03-07T14:48:52.025Z,100969.81
2023-03-07T14:51:28.198Z,100975.44
2023-03-07T14:53:59.791Z,100972.19
2023-03-07T14:56:34.969Z,100973.38
2023-03-07T14:59:07.668Z,100976.53
2023-03-07T15:01:43.771Z,100978.09
2023-03-07T15:04:28.557Z,100978.47
2023-03-07T15:07:01.706Z,100978.03
2023-03-07T15:09:33.364Z,100971.94
2023-03-07T15:12:09.260Z,100967.47
2023-03-07T15:14:48.758Z,100971.47
2023-03-07T15:17:28.051Z,100968.25
2023-03-07T15:20:03.781Z,100979.84
2023-03-07T15:22:40.626Z,100978.22
2023-03-07T15:25:24.609Z,100979.41
2023-03-07T15:28:04.784Z,100976.16
2023-03-07T15:30:38.264Z,100980.16
2023-03-07T15:33:18.168Z,100984.16
2023-03-07T15:36:08.471Z,100978.84
2023-03-07T15:38:39.013Z,100978.44
2023-03-07T15:41:36.325Z,100973.16
2023-03-07T15:44:17.098Z,100968.69
2023-03-07T15:46:51.324Z,100971.09
2023-03-07T15:49:29.079Z,100981.50
2023-03-07T15:52:02.672Z,100979.06
2023-03-07T15:54:41.806Z,100977.44
2023-03-07T15:57:24.784Z,100985.06
2023-03-07T16:00:00.632Z,100976.53
2023-03-07T16:02:47.647Z,100972.06
2023-03-07T16:05:41.340Z,100986.53
2023-03-07T16:08:17.042Z,100976.81
2023-03-07T16:10:54.255Z,100990.06
2023-03-07T16:13:31.048Z,100991.22
2023-03-07T16:16:05.053Z,100978.34
2023-03-07T16:18:37.597Z,100988.78
2023-03-07T16:21:14.965Z,100987.13
2023-03-07T16:23:47.307Z,100984.69
2023-03-07T16:26:25.806Z,100983.84
2023-03-07T16:28:57.240Z,100980.63
2023-03-07T16:31:28.009Z,100981.78
2023-03-07T16:33:59.354Z,100982.13
2023-03-07T16:36:30.819Z,100972.88
2023-03-07T16:39:01.315Z,100986.97
2023-03-07T16:41:31.958Z,100976.41
2023-03-07T16:44:03.118Z,100981.25
2023-03-07T16:46:34.222Z,100979.63
2023-03-07T16:49:04.717Z,100977.16
2023-03-07T16:51:37.686Z,100983.16
2023-03-07T16:54:08.824Z,100983.53
2023-03-07T16:56:45.916Z,100991.13
2023-03-07T16:59:19.544Z,100992.69
2023-03-07T17:01:52.307Z,100999.16
2023-03-07T17:04:23.283Z,101001.50
2023-03-07T17:07:04.272Z,101005.50
2023-03-07T17:09:35.056Z,100998.59
2023-03-07T17:12:06.407Z,101008.22
2023-03-07T17:14:38.304Z,101005.75
2023-03-07T17:17:20.115Z,101005.75
2023-03-07T17:19:51.364Z,101011.75
2023-03-07T17:22:24.178Z,101008.47
2023-03-07T17:24:55.154Z,101010.47
2023-03-07T17:27:26.354Z,101012.47
2023-03-07T17:29:58.162Z,101008.84
2023-03-07T17:32:29.150Z,101015.66
2023-03-07T17:35:00.013Z,101019.63
2023-03-07T17:37:33.327Z,101022.00
2023-03-07T17:40:10.519Z,101026.81
2023-03-07T17:42:42.094Z,101025.53
2023-03-07T17:45:15.228Z,101029.16
2023-03-07T17:47:45.430Z,101023.91
2023-03-07T17:50:15.585Z,101023.91
2023-03-07T17:52:48.006Z,101025.09
2023-03-07T17:55:20.112Z,101029.06
2023-03-07T17:57:50.944Z,101022.59
2023-03-07T18:00:23.578Z,101026.63
2023-03-07T18:02:55.067Z,101025.00
2023-03-07T18:05:26.480Z,101026.97
2023-03-07T18:07:59.371Z,101022.53
2023-03-07T18:10:30.014Z,101023.69
2023-03-07T18:13:00.594Z,101022.91
2023-03-07T18:15:30.881Z,101022.09
2023-03-07T18:18:01.827Z,101017.63
2023-03-07T18:20:33.279Z,101014.00
2023-03-07T18:23:05.738Z,101010.38
2023-03-07T18:25:35.823Z,101017.16
2023-03-07T18:28:05.854Z,101015.53
2023-03-07T18:30:36.131Z,101023.97
2023-03-07T18:33:06.276Z,101026.78
2023-03-07T18:35:39.632Z,101031.56
2023-03-07T18:38:11.716Z,101016.25
2023-03-07T18:40:41.866Z,101018.25
2023-03-07T18:43:12.512Z,101020.22
2023-03-07T18:45:45.393Z,101011.00
2023-03-07T18:48:16.690Z,101007.72
2023-03-07T18:50:47.267Z,101007.72
2023-03-07T18:53:19.527Z,101004.44
2023-03-07T18:55:49.356Z,101004.81
2023-03-07T18:58:21.810Z,101002.00
2023-03-07T19:00:52.649Z,100998.69
2023-03-07T19:03:22.746Z,101004.69
2023-03-07T19:05:53.073Z,101000.22
2023-03-07T19:08:24.639Z,101000.22
2023-03-07T19:10:55.233Z,100998.59
2023-03-07T19:13:25.266Z,101004.59
2023-03-07T19:16:05.939Z,101010.56
2023-03-07T19:18:38.303Z,101005.31
2023-03-07T19:21:09.554Z,101004.50
2023-03-07T19:23:42.779Z,101019.72
2023-03-07T19:26:17.106Z,101008.81
2023-03-07T19:28:48.858Z,101010.00
2023-03-07T19:31:21.101Z,101015.19
2023-03-07T19:33:53.736Z,101013.53
2023-03-07T19:36:27.400Z,101023.16
2023-03-07T19:39:01.575Z,101037.22
2023-03-07T19:41:33.592Z,101029.13
2023-03-07T19:44:06.866Z,101028.69
2023-03-07T19:46:37.475Z,101030.66
2023-03-07T19:49:08.636Z,101031.81
2023-03-07T19:51:39.236Z,101031.03
2023-03-07T19:54:12.756Z,101033.00
2023-03-07T19:56:44.821Z,101038.19
2023-03-07T19:59:16.118Z,101032.09
2023-03-07T20:01:46.818Z,101040.53
2023-03-07T20:04:19.321Z,101038.91
2023-03-07T20:06:49.305Z,101044.88
2023-03-07T20:09:21.873Z,101042.06
2023-03-07T20:11:52.521Z,101043.25
2023-03-07T20:14:23.159Z,101042.78
2023-03-07T20:16:53.794Z,101044.75
2023-03-07T20:19:24.530Z,101045.97
2023-03-07T20:21:55.011Z,101040.66
2023-03-07T20:24:27.655Z,101037.06
2023-03-07T20:26:58.288Z,101032.13
2023-03-07T20:29:28.986Z,101035.75
2023-03-07T20:31:59.658Z,101032.50
2023-03-07T20:34:30.434Z,101033.31
2023-03-07T20:37:01.010Z,101033.69
2023-03-07T20:39:33.121Z,101030.88
2023-03-07T20:42:03.995Z,101020.78
2023-03-07T20:44:34.944Z,101019.97
2023-03-07T20:47:04.976Z,101004.31
2023-03-07T20:49:35.681Z,101011.91
2023-03-07T20:52:06.591Z,101013.91
2023-03-07T20:54:38.590Z,101007.44
2023-03-07T20:57:09.505Z,101011.44
2023-03-07T20:59:40.130Z,101007.81
2023-03-07T21:02:12.188Z,101008.97
2023-03-07T21:04:42.786Z,101017.41
2023-03-07T21:07:13.295Z,101022.19
2023-03-07T21:09:51.161Z,101016.56
2023-03-07T21:12:22.269Z,101018.94
2023-03-07T21:14:52.273Z,101009.69
2023-03-07T21:17:22.899Z,101005.72
2023-03-07T21:19:54.221Z,101008.50
2023-03-07T21:22:24.743Z,101009.69
2023-03-07T21:24:57.227Z,101010.53
2023-03-07T21:27:27.891Z,101001.63
2023-03-07T21:29:58.492Z,100990.38
2023-03-07T21:32:29.088Z,100986.41
2023-03-07T21:34:59.945Z,100991.19
2023-03-07T21:37:30.463Z,100983.94
2023-03-07T21:40:02.625Z,100977.50
2023-03-07T21:42:33.273Z,100980.31
2023-03-07T21:45:03.750Z,100981.47
2023-03-07T21:47:34.314Z,100987.09
2023-03-07T21:50:04.847Z,100981.84
2023-03-07T21:52:34.930Z,100983.81
2023-03-07T21:55:08.409Z,100979.38
2023-03-07T21:57:39.962Z,100980.22
2023-03-07T22:00:15.800Z,100981.38
2023-03-07T22:02:46.294Z,100973.31
2023-03-07T22:05:16.868Z,100971.31
2023-03-07T22:07:47.523Z,100972.94
2023-03-07T22:10:20.466Z,100960.44
2023-03-07T22:12:51.045Z,100957.63
2023-03-07T22:15:21.718Z,100953.19
2023-03-07T22:17:51.799Z,100954.34
2023-03-07T22:20:22.661Z,100947.91
2023-03-07T22:22:53.272Z,100947.09
2023-03-07T22:25:25.929Z,100940.69
2023-03-07T22:27:56.456Z,100951.06
2023-03-07T22:30:27.077Z,100939.84
2023-03-07T22:32:57.549Z,100947.47
2023-03-07T22:35:28.333Z,100946.28
2023-03-07T22:37:58.353Z,100939.03
2023-03-07T22:40:30.992Z,100943.81
2023-03-07T22:43:01.515Z,100957.88
2023-03-07T22:45:32.124Z,100948.63
2023-03-07T22:48:02.320Z,100942.19
2023-03-07T22:50:32.947Z,100935.41
2023-03-07T22:53:03.899Z,100933.75
2023-03-07T22:55:40.748Z,100928.13
2023-03-07T22:58:10.922Z,100931.28
2023-03-07T23:00:44.549Z,100929.28
2023-03-07T23:03:15.317Z,100932.94
2023-03-07T23:05:50.201Z,100929.28
2023-03-07T23:08:21.048Z,100929.28
2023-03-07T23:10:53.071Z,100934.09
2023-03-07T23:13:23.455Z,100939.72
2023-03-07T23:15:53.607Z,100930.47
2023-03-07T23:18:24.720Z,100933.75
2023-03-07T23:20:55.244Z,100934.91
2023-03-07T23:23:26.211Z,100935.75
2023-03-07T23:25:58.213Z,100937.69
2023-03-07T23:28:28.971Z,100932.44
2023-03-07T23:30:59.748Z,100926.84
2023-03-07T23:33:32.451Z,100933.28
2023-03-07T23:36:03.223Z,100939.72
2023-03-07T23:38:33.891Z,100947.34
2023-03-07T23:41:05.486Z,100942.88
2023-03-07T23:43:35.464Z,100938.91
2023-03-07T23:46:06.279Z,100942.53
2023-03-07T23:48:36.995Z,100932.44
2023-03-07T23:51:07.789Z,100933.28
2023-03-07T23:53:37.733Z,100921.22
2023-03-07T23:56:12.070Z,100920.84
2023-03-07T23:58:42.500Z,100917.22
